createdAt,value
2019-05-06T00:00:19.891Z,0.00
2019-05-06T00:01:19.885Z,0.00
2019-05-06T00:02:19.876Z,0.00
2019-05-06T00:03:19.863Z,0.00
2019-05-06T00:04:19.859Z,0.00
2019-05-06T00:05:19.853Z,0.00
2019-05-06T00:06:19.839Z,0.00
2019-05-06T00:07:19.839Z,0.00
2019-05-06T00:08:19.822Z,0.00
2019-05-06T00:09:19.817Z,0.00
2019-05-06T00:10:19.808Z,0.00
2019-05-06T00:11:19.805Z,0.00
2019-05-06T00:12:19.792Z,0.00
2019-05-06T00:13:19.788Z,0.00
2019-05-06T00:14:19.778Z,0.00
2019-05-06T00:15:19.768Z,0.00
2019-05-06T00:16:19.760Z,0.00
2019-05-06T00:17:19.754Z,0.00
2019-05-06T00:18:19.750Z,0.00
2019-05-06T00:19:19.741Z,0.00
2019-05-06T00:20:19.728Z,0.00
2019-05-06T00:21:19.723Z,0.00
2019-05-06T00:22:19.719Z,0.00
2019-05-06T00:23:19.705Z,0.00
2019-05-06T00:24:19.702Z,0.00
2019-05-06T00:25:19.694Z,0.00
2019-05-06T00:26:19.683Z,0.00
2019-05-06T00:27:19.678Z,0.00
2019-05-06T00:28:19.666Z,0.00
2019-05-06T00:29:19.656Z,0.00
2019-05-06T00:30:19.652Z,0.00
2019-05-06T00:31:19.647Z,0.00
2019-05-06T00:32:19.632Z,0.00
2019-05-06T00:33:19.636Z,0.00
2019-05-06T00:34:19.620Z,0.00
2019-05-06T00:35:19.617Z,0.00
2019-05-06T00:36:19.599Z,0.00
2019-05-06T00:37:19.599Z,0.00
2019-05-06T00:38:19.587Z,0.00
2019-05-06T00:39:19.580Z,0.00
2019-05-06T00:40:19.569Z,0.00
2019-05-06T00:41:19.567Z,0.00
2019-05-06T00:42:19.568Z,0.00
2019-05-06T00:43:19.551Z,0.00
2019-05-06T00:44:19.542Z,0.00
2019-05-06T00:45:19.529Z,0.00
2019-05-06T00:46:19.522Z,0.00
2019-05-06T00:47:19.514Z,0.00
2019-05-06T00:48:19.509Z,0.00
2019-05-06T00:49:19.494Z,0.00
2019-05-06T00:50:19.492Z,0.00
2019-05-06T00:51:19.484Z,0.00
2019-05-06T00:52:19.469Z,0.00
2019-05-06T00:53:19.466Z,0.00
2019-05-06T00:54:19.454Z,0.00
2019-05-06T00:55:19.451Z,0.00
2019-05-06T00:56:19.441Z,0.00
2019-05-06T00:57:19.438Z,0.00
2019-05-06T00:58:19.423Z,0.00
2019-05-06T00:59:19.429Z,0.00
2019-05-06T01:00:19.427Z,0.00
2019-05-06T01:01:27.058Z,0.00
2019-05-06T01:02:19.397Z,0.00
2019-05-06T01:03:19.387Z,0.00
2019-05-06T01:04:19.380Z,0.00
2019-05-06T01:05:19.368Z,0.00
2019-05-06T01:06:19.364Z,0.00
2019-05-06T01:07:19.354Z,0.00
2019-05-06T01:08:19.346Z,0.00
2019-05-06T01:09:19.344Z,0.00
2019-05-06T01:10:19.327Z,0.00
2019-05-06T01:11:19.323Z,0.00
2019-05-06T01:12:19.336Z,0.00
2019-05-06T01:13:19.302Z,0.00
2019-05-06T01:14:19.298Z,0.00
2019-05-06T01:15:19.288Z,0.00
2019-05-06T01:16:19.275Z,0.00
2019-05-06T01:17:19.267Z,0.00
2019-05-06T01:18:19.263Z,0.00
2019-05-06T01:19:19.257Z,0.00
2019-05-06T01:20:19.249Z,0.00
2019-05-06T01:21:19.236Z,0.00
2019-05-06T01:22:19.228Z,0.00
2019-05-06T01:23:19.222Z,0.00
2019-05-06T01:24:19.212Z,0.00
2019-05-06T01:25:19.205Z,0.00
2019-05-06T01:26:19.198Z,0.00
2019-05-06T01:27:19.185Z,0.00
2019-05-06T01:28:19.176Z,0.00
2019-05-06T01:29:19.168Z,0.00
2019-05-06T01:30:19.164Z,0.00
2019-05-06T01:31:19.154Z,0.00
2019-05-06T01:32:19.150Z,0.00
2019-05-06T01:33:19.135Z,0.00
2019-05-06T01:34:19.129Z,0.00
2019-05-06T01:35:19.125Z,0.00
2019-05-06T01:36:19.118Z,0.00
2019-05-06T01:37:19.108Z,0.00
2019-05-06T01:38:19.099Z,0.00
2019-05-06T01:39:19.093Z,0.00
2019-05-06T01:40:19.085Z,0.00
2019-05-06T01:41:19.071Z,0.00
2019-05-06T01:42:19.074Z,0.00
2019-05-06T01:43:19.056Z,0.00
2019-05-06T01:44:19.047Z,0.00
2019-05-06T01:45:19.037Z,0.00
2019-05-06T01:46:19.029Z,0.00
2019-05-06T01:47:19.025Z,0.00
2019-05-06T01:48:19.012Z,0.00
2019-05-06T01:49:19.011Z,0.00
2019-05-06T01:50:18.997Z,0.00
2019-05-06T01:51:18.997Z,0.00
2019-05-06T01:52:18.986Z,0.00
2019-05-06T01:53:18.978Z,0.00
2019-05-06T01:54:18.969Z,0.00
2019-05-06T01:55:18.958Z,0.00
2019-05-06T01:56:18.950Z,0.00
2019-05-06T01:57:18.945Z,0.00
2019-05-06T01:58:18.938Z,0.00
2019-05-06T01:59:18.930Z,0.00
2019-05-06T02:00:18.914Z,0.00
2019-05-06T02:01:18.909Z,0.00
2019-05-06T02:02:18.904Z,0.00
2019-05-06T02:03:18.895Z,0.00
2019-05-06T02:04:18.888Z,0.00
2019-05-06T02:05:18.878Z,0.00
2019-05-06T02:06:18.867Z,0.00
2019-05-06T02:07:18.857Z,0.00
2019-05-06T02:08:18.849Z,0.00
2019-05-06T02:09:18.841Z,0.00
2019-05-06T02:10:18.833Z,0.00
2019-05-06T02:11:18.826Z,0.00
2019-05-06T02:12:18.818Z,0.00
2019-05-06T02:13:18.810Z,0.00
2019-05-06T02:14:18.806Z,0.00
2019-05-06T02:15:18.794Z,0.00
2019-05-06T02:16:18.794Z,0.00
2019-05-06T02:17:18.781Z,0.00
2019-05-06T02:18:18.769Z,0.00
2019-05-06T02:19:18.763Z,0.00
2019-05-06T02:20:18.754Z,0.00
2019-05-06T02:21:18.743Z,0.00
2019-05-06T02:22:18.739Z,0.00
2019-05-06T02:23:18.733Z,0.00
2019-05-06T02:24:18.724Z,0.00
2019-05-06T02:25:18.716Z,0.00
2019-05-06T02:26:18.707Z,0.00
2019-05-06T02:27:18.699Z,0.00
2019-05-06T02:28:18.684Z,0.00
2019-05-06T02:29:18.684Z,0.00
2019-05-06T02:30:18.673Z,0.00
2019-05-06T02:31:18.669Z,0.00
2019-05-06T02:32:25.972Z,0.00
2019-05-06T02:33:18.647Z,0.00
2019-05-06T02:34:18.641Z,0.00
2019-05-06T02:35:18.683Z,0.00
2019-05-06T02:36:18.622Z,0.00
2019-05-06T02:37:18.627Z,0.00
2019-05-06T02:38:18.606Z,0.00
2019-05-06T02:39:18.604Z,0.00
2019-05-06T02:40:18.592Z,0.00
2019-05-06T02:41:18.585Z,0.00
2019-05-06T02:42:18.575Z,0.00
2019-05-06T02:43:18.566Z,0.00
2019-05-06T02:44:18.559Z,0.00
2019-05-06T02:45:18.546Z,0.00
2019-05-06T02:46:18.549Z,0.00
2019-05-06T02:47:18.535Z,0.00
2019-05-06T02:48:18.529Z,0.00
2019-05-06T02:49:18.560Z,0.00
2019-05-06T02:50:18.513Z,0.00
2019-05-06T02:51:18.510Z,0.00
2019-05-06T02:52:18.491Z,0.00
2019-05-06T02:53:18.480Z,0.00
2019-05-06T02:54:18.474Z,0.00
2019-05-06T02:55:18.470Z,0.00
2019-05-06T02:56:18.466Z,0.00
2019-05-06T02:57:18.452Z,0.00
2019-05-06T02:58:18.443Z,0.00
2019-05-06T02:59:18.436Z,0.00
2019-05-06T03:00:18.425Z,0.00
2019-05-06T03:01:18.415Z,0.00
2019-05-06T03:02:35.669Z,0.00
2019-05-06T03:03:18.404Z,0.00
2019-05-06T03:04:18.395Z,0.00
2019-05-06T03:05:18.386Z,0.00
2019-05-06T03:06:18.379Z,0.00
2019-05-06T03:07:18.372Z,0.00
2019-05-06T03:08:18.364Z,0.00
2019-05-06T03:09:18.349Z,0.00
2019-05-06T03:10:18.353Z,0.00
2019-05-06T03:11:18.338Z,0.00
2019-05-06T03:12:18.331Z,0.00
2019-05-06T03:13:18.324Z,0.00
2019-05-06T03:14:18.310Z,0.00
2019-05-06T03:15:18.303Z,0.00
2019-05-06T03:16:18.298Z,0.00
2019-05-06T03:17:18.282Z,0.00
2019-05-06T03:18:18.281Z,4.00
2019-05-06T03:19:18.266Z,4.00
2019-05-06T03:20:18.263Z,4.00
2019-05-06T03:21:18.261Z,0.00
2019-05-06T03:22:18.245Z,4.00
2019-05-06T03:23:18.241Z,4.00
2019-05-06T03:24:18.230Z,4.00
2019-05-06T03:25:18.219Z,4.00
2019-05-06T03:26:18.226Z,8.00
2019-05-06T03:27:18.208Z,8.00
2019-05-06T03:28:18.195Z,8.00
2019-05-06T03:29:18.185Z,8.00
2019-05-06T03:30:18.185Z,8.00
2019-05-06T03:31:18.175Z,16.00
2019-05-06T03:32:28.478Z,16.00
2019-05-06T03:33:44.757Z,20.00
2019-05-06T03:34:46.919Z,16.00
2019-05-06T03:35:33.742Z,20.00
2019-05-06T03:36:25.078Z,24.00
2019-05-06T03:37:18.123Z,28.00
2019-05-06T03:38:18.112Z,32.00
2019-05-06T03:39:18.109Z,36.00
2019-05-06T03:40:18.090Z,40.00
2019-05-06T03:41:18.098Z,44.00
2019-05-06T03:42:18.082Z,52.00
2019-05-06T03:43:18.069Z,56.00
2019-05-06T03:44:18.057Z,64.00
2019-05-06T03:45:18.052Z,76.00
2019-05-06T03:46:18.048Z,80.00
2019-05-06T03:47:18.037Z,92.00
2019-05-06T03:48:18.028Z,104.00
2019-05-06T03:49:18.019Z,112.00
2019-05-06T03:50:18.011Z,128.00
2019-05-06T03:51:18.003Z,136.00
2019-05-06T03:52:17.991Z,152.00
2019-05-06T03:53:17.988Z,168.00
2019-05-06T03:54:17.977Z,180.00
2019-05-06T03:55:17.972Z,200.00
2019-05-06T03:56:20.021Z,216.00
2019-05-06T03:57:17.957Z,236.00
2019-05-06T03:58:17.945Z,252.00
2019-05-06T03:59:17.934Z,272.00
2019-05-06T04:00:17.921Z,288.00
2019-05-06T04:01:17.915Z,312.00
2019-05-06T04:02:17.911Z,332.00
2019-05-06T04:03:17.903Z,348.00
2019-05-06T04:04:17.888Z,372.00
2019-05-06T04:05:17.887Z,392.00
2019-05-06T04:06:17.885Z,412.00
2019-05-06T04:07:17.870Z,436.00
2019-05-06T04:08:20.233Z,456.00
2019-05-06T04:09:17.858Z,476.00
2019-05-06T04:10:17.844Z,500.00
2019-05-06T04:11:17.830Z,516.00
2019-05-06T04:12:17.824Z,540.00
2019-05-06T04:13:17.816Z,564.00
2019-05-06T04:14:17.807Z,588.00
2019-05-06T04:15:17.798Z,616.00
2019-05-06T04:16:17.795Z,644.00
2019-05-06T04:17:17.780Z,688.00
2019-05-06T04:18:17.776Z,728.00
2019-05-06T04:19:17.767Z,760.00
2019-05-06T04:20:17.756Z,796.00
2019-05-06T04:21:17.749Z,840.00
2019-05-06T04:22:17.740Z,892.00
2019-05-06T04:23:17.736Z,964.00
2019-05-06T04:24:17.724Z,1044.00
2019-05-06T04:25:17.711Z,1092.00
2019-05-06T04:26:17.707Z,1084.00
2019-05-06T04:27:17.693Z,1084.00
2019-05-06T04:28:17.685Z,1092.00
2019-05-06T04:29:17.682Z,1112.00
2019-05-06T04:30:17.678Z,1148.00
2019-05-06T04:31:17.662Z,1212.00
2019-05-06T04:32:17.650Z,1248.00
2019-05-06T04:33:17.860Z,1244.00
2019-05-06T04:34:19.689Z,1200.00
2019-05-06T04:35:17.626Z,1180.00
2019-05-06T04:36:17.624Z,1164.00
2019-05-06T04:37:17.616Z,1116.00
2019-05-06T04:38:17.606Z,1012.00
2019-05-06T04:39:17.593Z,940.00
2019-05-06T04:40:17.586Z,936.00
2019-05-06T04:41:17.582Z,980.00
2019-05-06T04:42:17.573Z,1048.00
2019-05-06T04:43:17.562Z,1164.00
2019-05-06T04:44:17.555Z,1232.00
2019-05-06T04:45:17.685Z,1244.00
2019-05-06T04:46:17.537Z,1252.00
2019-05-06T04:47:17.535Z,1244.00
2019-05-06T04:48:17.523Z,1248.00
2019-05-06T04:49:17.514Z,1264.00
2019-05-06T04:50:17.502Z,1288.00
2019-05-06T04:51:17.494Z,1308.00
2019-05-06T04:52:17.486Z,1316.00
2019-05-06T04:53:17.482Z,1336.00
2019-05-06T04:54:17.482Z,1364.00
2019-05-06T04:55:17.469Z,1384.00
2019-05-06T04:56:17.459Z,1400.00
2019-05-06T04:57:17.454Z,1440.00
2019-05-06T04:58:17.456Z,1492.00
2019-05-06T04:59:17.434Z,1540.00
2019-05-06T05:00:17.421Z,1576.00
2019-05-06T05:01:17.416Z,1604.00
2019-05-06T05:02:17.412Z,1660.00
2019-05-06T05:03:17.403Z,1716.00
2019-05-06T05:04:28.312Z,1752.00
2019-05-06T05:05:17.387Z,1776.00
2019-05-06T05:06:17.402Z,1816.00
2019-05-06T05:07:17.370Z,1876.00
2019-05-06T05:08:17.361Z,1920.00
2019-05-06T05:09:17.612Z,1932.00
2019-05-06T05:10:17.349Z,1928.00
2019-05-06T05:11:17.335Z,1952.00
2019-05-06T05:12:17.330Z,2016.00
2019-05-06T05:13:17.320Z,2096.00
2019-05-06T05:14:21.684Z,2164.00
2019-05-06T05:15:17.304Z,2208.00
2019-05-06T05:16:17.297Z,2220.00
2019-05-06T05:17:17.285Z,2232.00
2019-05-06T05:18:17.279Z,2276.00
2019-05-06T05:19:17.274Z,2316.00
2019-05-06T05:20:17.264Z,2336.00
2019-05-06T05:21:17.254Z,2340.00
2019-05-06T05:22:17.253Z,2340.00
2019-05-06T05:23:17.244Z,2372.00
2019-05-06T05:24:17.234Z,2404.00
2019-05-06T05:25:17.224Z,2452.00
2019-05-06T05:26:17.221Z,2476.00
2019-05-06T05:27:17.223Z,2492.00
2019-05-06T05:28:17.200Z,2532.00
2019-05-06T05:29:17.196Z,2584.00
2019-05-06T05:30:17.188Z,2608.00
2019-05-06T05:31:17.184Z,2652.00
2019-05-06T05:32:17.177Z,2736.00
2019-05-06T05:33:17.169Z,2812.00
2019-05-06T05:34:17.163Z,2868.00
2019-05-06T05:35:17.152Z,2944.00
2019-05-06T05:36:17.141Z,3012.00
2019-05-06T05:37:17.139Z,3096.00
2019-05-06T05:38:17.131Z,3144.00
2019-05-06T05:39:17.125Z,3164.00
2019-05-06T05:40:17.117Z,3168.00
2019-05-06T05:41:17.103Z,3180.00
2019-05-06T05:42:17.099Z,3208.00
2019-05-06T05:43:17.088Z,3244.00
2019-05-06T05:44:17.086Z,3248.00
2019-05-06T05:45:17.075Z,3268.00
2019-05-06T05:46:17.069Z,3360.00
2019-05-06T05:47:17.063Z,3488.00
2019-05-06T05:48:17.054Z,3628.00
2019-05-06T05:49:20.152Z,3724.00
2019-05-06T05:50:17.037Z,3764.00
2019-05-06T05:51:17.037Z,3760.00
2019-05-06T05:52:17.026Z,3780.00
2019-05-06T05:53:17.015Z,3828.00
2019-05-06T05:54:17.010Z,3864.00
2019-05-06T05:55:17.007Z,3932.00
2019-05-06T05:56:16.999Z,3964.00
2019-05-06T05:57:16.989Z,3980.00
2019-05-06T05:58:17.002Z,4000.00
2019-05-06T05:59:16.976Z,3968.00
2019-05-06T06:00:16.970Z,3912.00
2019-05-06T06:01:16.965Z,3892.00
2019-05-06T06:02:16.958Z,3916.00
2019-05-06T06:03:16.949Z,3956.00
2019-05-06T06:04:16.938Z,4020.00
2019-05-06T06:05:16.936Z,4120.00
2019-05-06T06:06:16.926Z,4228.00
2019-05-06T06:07:16.922Z,4296.00
2019-05-06T06:08:16.919Z,4380.00
2019-05-06T06:09:16.910Z,4496.00
2019-05-06T06:10:16.899Z,4620.00
2019-05-06T06:11:16.894Z,4748.00
2019-05-06T06:12:16.890Z,4880.00
2019-05-06T06:13:16.882Z,5036.00
2019-05-06T06:14:16.875Z,5164.00
2019-05-06T06:15:16.866Z,5288.00
2019-05-06T06:16:16.862Z,5400.00
2019-05-06T06:17:16.848Z,5544.00
2019-05-06T06:18:16.846Z,5696.00
2019-05-06T06:19:16.836Z,5804.00
2019-05-06T06:20:16.827Z,5940.00
2019-05-06T06:21:21.257Z,6124.00
2019-05-06T06:22:16.822Z,6340.00
2019-05-06T06:23:16.808Z,6560.00
2019-05-06T06:24:16.803Z,6748.00
2019-05-06T06:25:16.795Z,6896.00
2019-05-06T06:26:16.790Z,7004.00
2019-05-06T06:27:16.788Z,7092.00
2019-05-06T06:28:16.782Z,7204.00
2019-05-06T06:29:16.777Z,7380.00
2019-05-06T06:30:16.773Z,7552.00
2019-05-06T06:31:16.765Z,7764.00
2019-05-06T06:32:16.762Z,7984.00
2019-05-06T06:33:16.748Z,8132.00
2019-05-06T06:34:16.743Z,8120.00
2019-05-06T06:35:19.149Z,8284.00
2019-05-06T06:36:16.729Z,8028.00
2019-05-06T06:37:16.740Z,7920.00
2019-05-06T06:38:16.722Z,7872.00
2019-05-06T06:39:16.717Z,7512.00
2019-05-06T06:40:16.712Z,7456.00
2019-05-06T06:41:16.711Z,7516.00
2019-05-06T06:42:16.714Z,7524.00
2019-05-06T06:43:16.695Z,7340.00
2019-05-06T06:44:16.690Z,7340.00
2019-05-06T06:45:16.684Z,7504.00
2019-05-06T06:46:16.681Z,7924.00
2019-05-06T06:47:16.670Z,8120.00
2019-05-06T06:48:16.667Z,8056.00
2019-05-06T06:49:16.663Z,7900.00
2019-05-06T06:50:16.655Z,7724.00
2019-05-06T06:51:16.647Z,7616.00
2019-05-06T06:52:16.641Z,7492.00
2019-05-06T06:53:16.640Z,7456.00
2019-05-06T06:54:16.630Z,7552.00
2019-05-06T06:55:18.512Z,7864.00
2019-05-06T06:56:16.621Z,8012.00
2019-05-06T06:57:16.618Z,8160.00
2019-05-06T06:58:16.608Z,8692.00
2019-05-06T06:59:16.607Z,8840.00
2019-05-06T07:00:16.595Z,9200.00
2019-05-06T07:01:16.598Z,9320.00
2019-05-06T07:02:16.593Z,9412.00
2019-05-06T07:03:16.584Z,9724.00
2019-05-06T07:04:16.576Z,10052.00
2019-05-06T07:05:27.539Z,10216.00
2019-05-06T07:06:16.566Z,10340.00
2019-05-06T07:07:16.565Z,10492.00
2019-05-06T07:08:16.559Z,10724.00
2019-05-06T07:09:16.553Z,10992.00
2019-05-06T07:10:16.549Z,11208.00
2019-05-06T07:11:16.542Z,11440.00
2019-05-06T07:12:16.572Z,11636.00
2019-05-06T07:13:16.546Z,11784.00
2019-05-06T07:14:16.528Z,11788.00
2019-05-06T07:15:16.527Z,11904.00
2019-05-06T07:16:16.518Z,11960.00
2019-05-06T07:17:16.516Z,12256.00
2019-05-06T07:18:16.511Z,12368.00
2019-05-06T07:19:16.504Z,12600.00
2019-05-06T07:20:16.505Z,12788.00
2019-05-06T07:21:16.498Z,13028.00
2019-05-06T07:22:16.492Z,13112.00
2019-05-06T07:23:16.486Z,13032.00
2019-05-06T07:24:16.484Z,12980.00
2019-05-06T07:25:16.481Z,12964.00
2019-05-06T07:26:16.475Z,13152.00
2019-05-06T07:27:16.471Z,13560.00
2019-05-06T07:28:16.468Z,13928.00
2019-05-06T07:29:23.611Z,14040.00
2019-05-06T07:30:16.458Z,13768.00
2019-05-06T07:31:22.345Z,13308.00
2019-05-06T07:32:16.454Z,12924.00
2019-05-06T07:33:16.455Z,12644.00
2019-05-06T07:34:16.446Z,12312.00
2019-05-06T07:35:16.442Z,12008.00
2019-05-06T07:36:16.436Z,11528.00
2019-05-06T07:37:16.431Z,11208.00
2019-05-06T07:38:16.425Z,11140.00
2019-05-06T07:39:16.432Z,11292.00
2019-05-06T07:40:16.418Z,11808.00
2019-05-06T07:41:16.418Z,12584.00
2019-05-06T07:42:16.412Z,13392.00
2019-05-06T07:43:16.413Z,13496.00
2019-05-06T07:44:16.405Z,13768.00
2019-05-06T07:45:16.399Z,14336.00
2019-05-06T07:46:16.398Z,15068.00
2019-05-06T07:47:16.390Z,15592.00
2019-05-06T07:48:16.386Z,15920.00
2019-05-06T07:49:16.382Z,15864.00
2019-05-06T07:50:16.380Z,15812.00
2019-05-06T07:51:16.377Z,15588.00
2019-05-06T07:52:17.271Z,15340.00
2019-05-06T07:53:16.376Z,15256.00
2019-05-06T07:54:16.366Z,15304.00
2019-05-06T07:55:16.363Z,15332.00
2019-05-06T07:56:16.364Z,15008.00
2019-05-06T07:57:16.364Z,14800.00
2019-05-06T07:58:16.354Z,14724.00
2019-05-06T07:59:16.351Z,15064.00
2019-05-06T08:00:16.350Z,15156.00
2019-05-06T08:01:16.350Z,15264.00
2019-05-06T08:02:16.346Z,15148.00
2019-05-06T08:03:16.341Z,15420.00
2019-05-06T08:04:16.337Z,16160.00
2019-05-06T08:05:16.338Z,16284.00
2019-05-06T08:06:16.337Z,17792.00
2019-05-06T08:07:16.335Z,18304.00
2019-05-06T08:08:16.330Z,18048.00
2019-05-06T08:09:16.322Z,17568.00
2019-05-06T08:10:16.326Z,18304.00
2019-05-06T08:11:16.320Z,19136.00
2019-05-06T08:12:16.313Z,19328.00
2019-05-06T08:13:16.315Z,18368.00
2019-05-06T08:14:16.311Z,18304.00
2019-05-06T08:15:16.322Z,17888.00
2019-05-06T08:16:16.307Z,17760.00
2019-05-06T08:17:16.309Z,20192.00
2019-05-06T08:18:16.305Z,17856.00
2019-05-06T08:19:16.302Z,17728.00
2019-05-06T08:20:16.297Z,17248.00
2019-05-06T08:21:16.298Z,16800.00
2019-05-06T08:22:16.295Z,16500.00
2019-05-06T08:23:16.293Z,16200.00
2019-05-06T08:24:16.286Z,16060.00
2019-05-06T08:25:16.292Z,15844.00
2019-05-06T08:26:17.853Z,15280.00
2019-05-06T08:27:16.287Z,14544.00
2019-05-06T08:28:16.285Z,13440.00
2019-05-06T08:29:16.277Z,12096.00
2019-05-06T08:30:16.321Z,10400.00
2019-05-06T08:31:16.271Z,8796.00
2019-05-06T08:32:16.272Z,7268.00
2019-05-06T08:33:16.271Z,6580.00
2019-05-06T08:34:16.268Z,6760.00
2019-05-06T08:35:16.260Z,7520.00
2019-05-06T08:36:16.262Z,7036.00
2019-05-06T08:37:16.276Z,6744.00
2019-05-06T08:38:16.250Z,6568.00
2019-05-06T08:39:16.246Z,6476.00
2019-05-06T08:40:16.244Z,6460.00
2019-05-06T08:41:16.241Z,6444.00
2019-05-06T08:42:16.272Z,6492.00
2019-05-06T08:43:16.238Z,6496.00
2019-05-06T08:44:16.234Z,6768.00
2019-05-06T08:45:16.224Z,6708.00
2019-05-06T08:46:16.227Z,6948.00
2019-05-06T08:47:16.220Z,7152.00
2019-05-06T08:48:16.216Z,7512.00
2019-05-06T08:49:16.209Z,8052.00
2019-05-06T08:50:16.209Z,8724.00
2019-05-06T08:51:16.206Z,9616.00
2019-05-06T08:52:16.207Z,11060.00
2019-05-06T08:53:16.221Z,12664.00
2019-05-06T08:54:16.207Z,14376.00
2019-05-06T08:55:16.191Z,16384.00
2019-05-06T08:56:16.590Z,17984.00
2019-05-06T08:57:16.185Z,19264.00
2019-05-06T08:58:16.184Z,20416.00
2019-05-06T08:59:16.186Z,21056.00
2019-05-06T09:00:16.182Z,21920.00
2019-05-06T09:01:16.181Z,20928.00
2019-05-06T09:02:16.175Z,18464.00
2019-05-06T09:03:16.180Z,17824.00
2019-05-06T09:04:16.600Z,15876.00
2019-05-06T09:05:16.171Z,14400.00
2019-05-06T09:06:26.540Z,12876.00
2019-05-06T09:07:16.168Z,11620.00
2019-05-06T09:08:16.166Z,12236.00
2019-05-06T09:09:16.172Z,11744.00
2019-05-06T09:10:16.171Z,11352.00
2019-05-06T09:11:16.169Z,11260.00
2019-05-06T09:12:16.171Z,11152.00
2019-05-06T09:13:16.165Z,10848.00
2019-05-06T09:14:16.162Z,10812.00
2019-05-06T09:15:16.163Z,10824.00
2019-05-06T09:16:16.161Z,10720.00
2019-05-06T09:17:16.156Z,10528.00
2019-05-06T09:18:16.153Z,10368.00
2019-05-06T09:19:16.157Z,10520.00
2019-05-06T09:20:16.152Z,10952.00
2019-05-06T09:21:16.150Z,10912.00
2019-05-06T09:22:16.154Z,11164.00
2019-05-06T09:23:16.154Z,10656.00
2019-05-06T09:24:16.153Z,10412.00
2019-05-06T09:25:16.150Z,10224.00
2019-05-06T09:26:16.150Z,10904.00
2019-05-06T09:27:16.146Z,11532.00
2019-05-06T09:28:16.145Z,11928.00
2019-05-06T09:29:16.145Z,10304.00
2019-05-06T09:30:16.144Z,10436.00
2019-05-06T09:31:16.138Z,12032.00
2019-05-06T09:32:16.140Z,11280.00
2019-05-06T09:33:16.137Z,12076.00
2019-05-06T09:34:16.145Z,13892.00
2019-05-06T09:35:16.140Z,9916.00
2019-05-06T09:36:16.143Z,11344.00
2019-05-06T09:37:16.138Z,16136.00
2019-05-06T09:38:16.143Z,19072.00
2019-05-06T09:39:16.139Z,18976.00
2019-05-06T09:40:16.137Z,15636.00
2019-05-06T09:41:16.143Z,18464.00
2019-05-06T09:42:16.142Z,22784.00
2019-05-06T09:43:16.144Z,23296.00
2019-05-06T09:44:16.145Z,23072.00
2019-05-06T09:45:16.143Z,22944.00
2019-05-06T09:46:16.140Z,22656.00
2019-05-06T09:47:16.146Z,23840.00
2019-05-06T09:48:16.148Z,21888.00
2019-05-06T09:49:16.146Z,22656.00
2019-05-06T09:50:16.154Z,22112.00
2019-05-06T09:51:16.147Z,21536.00
2019-05-06T09:52:16.147Z,22944.00
2019-05-06T09:53:16.156Z,21888.00
2019-05-06T09:54:16.152Z,21792.00
2019-05-06T09:55:16.157Z,22752.00
2019-05-06T09:56:16.152Z,25728.00
2019-05-06T09:57:16.157Z,27584.00
2019-05-06T09:58:16.174Z,26432.00
2019-05-06T09:59:16.159Z,27360.00
2019-05-06T10:00:16.164Z,28800.00
2019-05-06T10:01:16.166Z,28704.00
2019-05-06T10:02:16.171Z,27072.00
2019-05-06T10:03:16.173Z,27680.00
2019-05-06T10:04:16.176Z,28096.00
2019-05-06T10:05:16.169Z,29760.00
2019-05-06T10:06:16.170Z,30624.00
2019-05-06T10:07:16.172Z,31648.00
2019-05-06T10:08:16.174Z,31392.00
2019-05-06T10:09:16.545Z,30272.00
2019-05-06T10:10:17.769Z,29568.00
2019-05-06T10:11:16.185Z,28192.00
2019-05-06T10:12:16.189Z,26496.00
2019-05-06T10:13:16.191Z,25312.00
2019-05-06T10:14:16.187Z,24480.00
2019-05-06T10:15:16.196Z,23616.00
2019-05-06T10:16:16.194Z,25056.00
2019-05-06T10:17:16.191Z,28544.00
2019-05-06T10:18:16.195Z,32928.00
2019-05-06T10:19:16.229Z,33408.00
2019-05-06T10:20:16.195Z,32736.00
2019-05-06T10:21:16.214Z,31008.00
2019-05-06T10:22:16.202Z,28640.00
2019-05-06T10:23:16.210Z,27072.00
2019-05-06T10:24:16.216Z,24352.00
2019-05-06T10:25:16.213Z,27328.00
2019-05-06T10:26:16.221Z,28608.00
2019-05-06T10:27:16.212Z,29632.00
2019-05-06T10:28:16.213Z,29504.00
2019-05-06T10:29:16.231Z,31040.00
2019-05-06T10:30:16.224Z,29856.00
2019-05-06T10:31:16.230Z,30304.00
2019-05-06T10:32:16.227Z,31168.00
2019-05-06T10:33:16.257Z,35104.00
2019-05-06T10:34:16.239Z,41344.00
2019-05-06T10:35:16.238Z,27168.00
2019-05-06T10:36:16.242Z,30432.00
2019-05-06T10:37:19.254Z,24096.00
2019-05-06T10:38:16.246Z,22912.00
2019-05-06T10:39:16.241Z,25344.00
2019-05-06T10:40:16.245Z,25888.00
2019-05-06T10:41:16.249Z,26144.00
2019-05-06T10:42:16.249Z,30336.00
2019-05-06T10:43:16.250Z,34624.00
2019-05-06T10:44:16.255Z,69472.00
2019-05-06T10:45:16.252Z,25280.00
2019-05-06T10:46:16.258Z,27136.00
2019-05-06T10:47:16.259Z,18528.00
2019-05-06T10:48:16.264Z,15684.00
2019-05-06T10:49:16.261Z,18432.00
2019-05-06T10:50:16.264Z,23840.00
2019-05-06T10:51:17.093Z,110176.00
2019-05-06T10:52:16.269Z,22816.00
2019-05-06T10:53:16.266Z,34048.00
2019-05-06T10:54:16.272Z,22944.00
2019-05-06T10:55:16.273Z,26816.00
2019-05-06T10:56:16.274Z,37632.00
2019-05-06T10:57:16.273Z,34592.00
2019-05-06T10:58:16.282Z,28928.00
2019-05-06T10:59:16.277Z,102944.00
2019-05-06T11:00:16.286Z,45184.00
2019-05-06T11:01:16.289Z,102048.00
2019-05-06T11:02:16.292Z,17792.00
2019-05-06T11:03:16.298Z,16164.00
2019-05-06T11:04:16.305Z,14328.00
2019-05-06T11:05:16.309Z,13036.00
2019-05-06T11:06:16.315Z,12944.00
2019-05-06T11:07:28.226Z,12548.00
2019-05-06T11:08:16.313Z,12656.00
2019-05-06T11:09:16.317Z,12632.00
2019-05-06T11:10:24.418Z,12516.00
2019-05-06T11:11:31.341Z,13588.00
2019-05-06T11:12:16.318Z,14956.00
2019-05-06T11:13:16.317Z,17568.00
2019-05-06T11:14:16.322Z,50976.00
2019-05-06T11:15:16.321Z,19168.00
2019-05-06T11:16:17.014Z,14216.00
2019-05-06T11:17:16.342Z,13112.00
2019-05-06T11:18:16.327Z,12592.00
2019-05-06T11:19:16.322Z,12704.00
2019-05-06T11:20:16.345Z,13792.00
2019-05-06T11:21:16.323Z,15276.00
2019-05-06T11:22:16.340Z,17888.00
2019-05-06T11:23:16.330Z,22368.00
2019-05-06T11:24:16.334Z,26272.00
2019-05-06T11:25:16.324Z,41728.00
2019-05-06T11:26:16.330Z,29056.00
2019-05-06T11:27:27.761Z,30400.00
2019-05-06T11:28:16.327Z,114240.00
2019-05-06T11:29:16.333Z,93056.00
2019-05-06T11:30:16.381Z,84864.00
2019-05-06T11:31:16.344Z,89088.00
2019-05-06T11:32:16.346Z,89856.00
2019-05-06T11:33:16.357Z,34848.00
2019-05-06T11:34:16.362Z,27456.00
2019-05-06T11:35:16.376Z,28512.00
2019-05-06T11:36:16.370Z,52640.00
2019-05-06T11:37:16.389Z,28256.00
2019-05-06T11:38:16.375Z,28384.00
2019-05-06T11:39:16.386Z,28160.00
2019-05-06T11:40:17.153Z,28192.00
2019-05-06T11:41:16.389Z,27392.00
2019-05-06T11:42:27.645Z,20064.00
2019-05-06T11:43:16.393Z,19328.00
2019-05-06T11:44:16.401Z,21312.00
2019-05-06T11:45:16.403Z,25376.00
2019-05-06T11:46:16.408Z,28832.00
2019-05-06T11:47:16.407Z,23072.00
2019-05-06T11:48:16.407Z,22208.00
2019-05-06T11:49:16.413Z,22720.00
2019-05-06T11:50:16.408Z,23136.00
2019-05-06T11:51:16.416Z,23648.00
2019-05-06T11:52:16.414Z,23616.00
2019-05-06T11:53:16.422Z,22400.00
2019-05-06T11:54:20.030Z,20640.00
2019-05-06T11:55:27.858Z,19424.00
2019-05-06T11:56:16.422Z,20256.00
2019-05-06T11:57:16.421Z,22432.00
2019-05-06T11:58:16.425Z,26144.00
2019-05-06T11:59:16.421Z,38144.00
2019-05-06T12:00:16.421Z,85824.00
2019-05-06T12:01:16.423Z,29088.00
2019-05-06T12:02:16.430Z,23296.00
2019-05-06T12:03:16.427Z,20128.00
2019-05-06T12:04:16.431Z,18272.00
2019-05-06T12:05:16.438Z,16448.00
2019-05-06T12:06:16.434Z,14912.00
2019-05-06T12:07:16.468Z,14284.00
2019-05-06T12:08:16.438Z,14392.00
2019-05-06T12:09:17.320Z,15244.00
2019-05-06T12:10:16.433Z,19904.00
2019-05-06T12:11:16.441Z,22464.00
2019-05-06T12:12:16.436Z,23520.00
2019-05-06T12:13:16.437Z,23904.00
2019-05-06T12:14:16.435Z,27424.00
2019-05-06T12:15:16.436Z,30944.00
2019-05-06T12:16:16.442Z,49568.00
2019-05-06T12:17:16.439Z,36544.00
2019-05-06T12:18:16.445Z,31840.00